Aérodrome :
LOGIN :

S'inscrire | Disclaimer

   EN    FR    IT 

 










Légende :    VFR   VFR Marginal   IFR   IFR Intensif   IFR Très Intensif
Visi : 
Plafond : 
>= 8 km
>= 3000ft
5 à 8 km
1000 à 3000 ft
1500m à 5 km
500 à 1000 ft
800 à 1500m
200 à 500 ft
< 800m
< 200 ft
Symboles :   Orages  Brouillard  Fortes neiges  Fortes précipitations  Vent > 20 kt
SIGMETs :   Divers  Orages  Givrage  Turbulence  Onde Orograph.  Cendres Volcan.







- Altitude de l'aérodrome : 404 ft
- Code IATA : WRO


EPWR - Wroclaw

DERNIER METAR :
  • 261200Z 23009KT 200V270 CAVOK 35/17 Q1020

METARs EXPIRÉS :
  • 261130Z 28008KT 230V310 CAVOK 35/17 Q1020
  • 261100Z 27006KT 210V020 CAVOK 34/17 Q1021
  • 261030Z 21008KT 170V270 CAVOK 34/17 Q1021
  • 261000Z 23006KT 160V280 CAVOK 33/17 Q1021
  • 260930Z 20006KT 160V250 CAVOK 32/17 Q1021

TAF TAF EPWR
Valide du 26 à 12h jusqu'au 27 à 12h UTC


261130Z 2612/2712 26010KT CAVOK
PROB40
TEMPO 2618/2624 SCT040CB
BECMG 2621/2624 32010KT
TEMPO 2705/2712 33018G29KT
Pas de NOTAMs connus pour ce terrain.



MET'MAP, la Météo Aéronautique d'un coup d'oeil ! - Copyright ORBIFLY Décembre 2007 - Disclaimer

ORBIFLY MET'MAP TEAM :

Programmation & Développement : Alexandra Zaïnal
Conception & Développement : Baudouin d'Aumeries
Co-Programmation & Développement : Marc-Olivier Méhu
Soutien technique & logistique : Manuel Goepfert

Contact : metmap@orbifly.com




SOURCES & CREDITS :

   NOAA